Terminal Aerodrome Forecast
Issued by NWS Mt. Holly, NJ

Current Version | Previous Version | Text Only | Print | Product List | Glossary On
Versions: 1 2 3 4 5 6 7 8 9 10 11 12 13 14 15 16 17 18 19 20 21 22 23 24 25 26 27 28 29 30 31 32
490
FTUS41 KPHI 282059 AAB
TAFPHL
TAF AMD
KPHL 282059Z 2821/2924 02006KT 6SM BR VCSH OVC008
     FM282300 01004KT 2SM SHRA BKN005 OVC010
     FM290200 01004KT 4SM BR OVC003
     FM290600 36005KT P6SM BKN008 OVC015
     FM290800 35008KT P6SM BKN015 BKN050
     FM291000 35012KT P6SM FEW070 SCT250
     FM291500 35012G18KT P6SM SKC=

USA.gov is the U.S. government's official web portal to all federal, state and local government web resources and services.